createdAt,value
2023-05-19T00:01:49.480Z,9.52
2023-05-19T00:04:37.218Z,9.59
2023-05-19T00:07:31.572Z,9.44
2023-05-19T00:10:19.739Z,9.33
2023-05-19T00:13:06.796Z,9.22
2023-05-19T00:15:54.251Z,9.31
2023-05-19T00:18:40.953Z,9.28
2023-05-19T00:21:28.447Z,9.17
2023-05-19T00:24:16.482Z,9.20
2023-05-19T00:27:03.176Z,9.17
2023-05-19T00:29:49.944Z,9.06
2023-05-19T00:32:36.836Z,9.01
2023-05-19T00:35:24.384Z,9.01
2023-05-19T00:38:10.808Z,9.08
2023-05-19T00:40:59.725Z,8.98
2023-05-19T00:43:46.597Z,9.01
2023-05-19T00:46:33.436Z,9.11
2023-05-19T00:49:20.264Z,9.17
2023-05-19T00:52:08.302Z,9.17
2023-05-19T00:54:56.739Z,9.09
2023-05-19T00:57:45.375Z,9.12
2023-05-19T01:00:32.406Z,9.14
2023-05-19T01:03:20.690Z,9.19
2023-05-19T01:06:08.307Z,9.18
2023-05-19T01:08:55.436Z,9.13
2023-05-19T01:11:42.377Z,9.26
2023-05-19T01:14:31.391Z,9.18
2023-05-19T01:17:28.274Z,9.20
2023-05-19T01:20:19.760Z,9.22
2023-05-19T01:23:27.140Z,8.86
2023-05-19T01:26:37.120Z,9.12
2023-05-19T01:29:43.203Z,9.26
2023-05-19T01:32:32.671Z,9.00
2023-05-19T01:35:25.050Z,9.12
2023-05-19T01:38:14.292Z,9.29
2023-05-19T01:41:01.722Z,9.23
2023-05-19T01:43:48.867Z,9.26
2023-05-19T01:46:36.004Z,9.19
2023-05-19T01:49:24.571Z,9.24
2023-05-19T01:52:11.560Z,9.27
2023-05-19T01:54:58.479Z,9.17
2023-05-19T01:57:56.547Z,9.25
2023-05-19T02:00:54.246Z,9.19
2023-05-19T02:04:03.343Z,9.19
2023-05-19T02:07:01.322Z,9.31
2023-05-19T02:09:54.145Z,9.10
2023-05-19T02:12:41.982Z,9.01
2023-05-19T02:15:34.968Z,9.08
2023-05-19T02:18:22.646Z,8.99
2023-05-19T02:21:13.424Z,8.99
2023-05-19T02:24:01.435Z,8.95
2023-05-19T02:26:48.554Z,8.92
2023-05-19T02:29:35.375Z,8.99
2023-05-19T02:32:22.522Z,8.99
2023-05-19T02:35:09.908Z,8.91
2023-05-19T02:37:56.647Z,8.88
2023-05-19T02:40:44.841Z,8.90
2023-05-19T02:43:31.627Z,8.79
2023-05-19T02:46:18.227Z,8.77
2023-05-19T02:49:05.099Z,8.56
2023-05-19T02:51:51.909Z,8.73
2023-05-19T02:54:38.541Z,8.70
2023-05-19T02:57:27.083Z,8.69
2023-05-19T03:00:14.754Z,8.67
2023-05-19T03:03:03.096Z,8.62
2023-05-19T03:05:49.981Z,8.50
2023-05-19T03:08:36.948Z,8.36
2023-05-19T03:11:24.414Z,8.45
2023-05-19T03:14:13.719Z,8.39
2023-05-19T03:17:01.410Z,8.14
2023-05-19T03:19:48.198Z,8.38
2023-05-19T03:22:35.062Z,8.50
2023-05-19T03:25:21.941Z,8.46
2023-05-19T03:28:08.756Z,8.10
2023-05-19T03:30:57.023Z,8.61
2023-05-19T03:33:47.886Z,8.56
2023-05-19T03:36:40.033Z,8.69
2023-05-19T03:39:32.365Z,8.68
2023-05-19T03:42:18.852Z,8.67
2023-05-19T03:45:06.246Z,8.81
2023-05-19T03:47:54.541Z,8.76
2023-05-19T03:50:52.732Z,8.84
2023-05-19T03:53:43.404Z,9.06
2023-05-19T03:56:30.250Z,9.11
2023-05-19T03:59:17.312Z,9.11
2023-05-19T04:02:04.107Z,8.98
2023-05-19T04:04:52.469Z,9.05
2023-05-19T04:07:39.605Z,9.38
2023-05-19T04:10:26.460Z,9.34
2023-05-19T04:13:14.788Z,9.50
2023-05-19T04:16:01.798Z,9.55
2023-05-19T04:18:48.383Z,9.70
2023-05-19T04:21:36.533Z,9.84
2023-05-19T04:24:23.452Z,9.96
2023-05-19T04:27:12.235Z,10.08
2023-05-19T04:30:00.286Z,10.32
2023-05-19T04:32:46.943Z,10.47
2023-05-19T04:35:34.452Z,10.65
2023-05-19T04:38:23.414Z,10.88
2023-05-19T04:41:11.114Z,10.91
2023-05-19T04:43:59.311Z,10.99
2023-05-19T04:46:46.340Z,11.09
2023-05-19T04:49:33.570Z,11.23
2023-05-19T04:52:21.946Z,11.25
2023-05-19T04:55:13.413Z,11.23
2023-05-19T04:58:00.975Z,11.38
2023-05-19T05:00:48.244Z,11.50
2023-05-19T05:03:35.383Z,11.68
2023-05-19T05:06:22.558Z,11.97
2023-05-19T05:09:10.570Z,12.27
2023-05-19T05:11:59.352Z,12.39
2023-05-19T05:14:46.358Z,12.58
2023-05-19T05:17:33.922Z,12.59
2023-05-19T05:20:22.874Z,12.73
2023-05-19T05:23:10.828Z,12.74
2023-05-19T05:25:58.481Z,12.78
2023-05-19T05:28:46.686Z,13.01
2023-05-19T05:31:34.535Z,13.13
2023-05-19T05:34:22.509Z,13.28
2023-05-19T05:37:15.128Z,13.40
2023-05-19T05:40:07.158Z,13.49
2023-05-19T05:42:57.477Z,13.47
2023-05-19T05:45:48.477Z,13.60
2023-05-19T05:48:36.129Z,14.15
2023-05-19T05:51:25.983Z,13.99
2023-05-19T05:54:14.980Z,14.36
2023-05-19T05:57:06.302Z,14.67
2023-05-19T05:59:53.764Z,15.02
2023-05-19T06:02:43.668Z,15.16
2023-05-19T06:05:30.504Z,15.14
2023-05-19T06:08:17.878Z,15.50
2023-05-19T06:11:08.473Z,15.60
2023-05-19T06:13:56.607Z,15.69
2023-05-19T06:17:03.563Z,15.90
2023-05-19T06:19:51.725Z,15.91
2023-05-19T06:22:38.681Z,15.81
2023-05-19T06:25:26.173Z,16.20
2023-05-19T06:28:13.443Z,16.15
2023-05-19T06:31:00.317Z,16.08
2023-05-19T06:34:01.736Z,15.87
2023-05-19T06:36:49.958Z,16.11
2023-05-19T06:39:39.358Z,16.21
2023-05-19T06:42:26.113Z,16.43
2023-05-19T06:45:25.086Z,16.59
2023-05-19T06:48:11.774Z,16.69
2023-05-19T06:50:58.564Z,16.66
2023-05-19T06:53:47.336Z,16.83
2023-05-19T06:56:33.978Z,16.84
2023-05-19T06:59:22.454Z,16.67
2023-05-19T07:02:11.014Z,16.94
2023-05-19T07:04:58.147Z,16.81
2023-05-19T07:07:45.360Z,17.14
2023-05-19T07:10:37.686Z,17.23
2023-05-19T07:13:29.231Z,17.62
2023-05-19T07:16:16.702Z,17.72
2023-05-19T07:19:04.544Z,17.97
2023-05-19T07:21:52.221Z,17.80
2023-05-19T07:24:38.928Z,17.94
2023-05-19T07:27:27.279Z,18.10
2023-05-19T07:30:14.830Z,18.02
2023-05-19T07:33:01.468Z,17.75
2023-05-19T07:35:48.883Z,17.85
2023-05-19T07:38:35.895Z,17.95
2023-05-19T07:41:23.159Z,17.84
2023-05-19T07:44:11.107Z,18.16
2023-05-19T07:46:58.447Z,18.15
2023-05-19T07:49:45.448Z,18.15
2023-05-19T07:52:32.050Z,18.23
2023-05-19T07:55:19.371Z,18.58
2023-05-19T07:58:06.214Z,18.69
2023-05-19T08:00:54.384Z,18.71
2023-05-19T08:03:40.996Z,18.72
2023-05-19T08:06:28.402Z,18.66
2023-05-19T08:09:15.195Z,18.93
2023-05-19T08:12:02.302Z,18.99
2023-05-19T08:14:48.913Z,19.14
2023-05-19T08:17:36.933Z,18.99
2023-05-19T08:20:24.450Z,18.98
2023-05-19T08:23:12.361Z,19.09
2023-05-19T08:25:58.899Z,19.31
2023-05-19T08:28:45.596Z,19.54
2023-05-19T08:31:32.759Z,19.10
2023-05-19T08:34:20.952Z,19.43
2023-05-19T08:37:08.015Z,19.93
2023-05-19T08:39:54.929Z,19.89
2023-05-19T08:42:41.937Z,20.00
2023-05-19T08:45:28.765Z,20.50
2023-05-19T08:48:18.180Z,20.77
2023-05-19T08:51:16.466Z,20.65
2023-05-19T08:54:10.328Z,20.40
2023-05-19T08:56:57.762Z,20.21
2023-05-19T08:59:44.710Z,20.43
2023-05-19T09:02:32.093Z,20.61
2023-05-19T09:05:19.998Z,20.95
2023-05-19T09:08:08.731Z,20.92
2023-05-19T09:10:55.427Z,20.61
2023-05-19T09:13:42.262Z,20.53
2023-05-19T09:16:30.458Z,20.79
2023-05-19T09:19:17.220Z,20.24
2023-05-19T09:22:04.812Z,20.67
2023-05-19T09:24:54.205Z,20.28
2023-05-19T09:27:41.168Z,20.54
2023-05-19T09:30:27.851Z,20.71
2023-05-19T09:33:20.876Z,20.78
2023-05-19T09:36:09.216Z,20.30
2023-05-19T09:38:56.097Z,20.71
2023-05-19T09:41:44.638Z,20.84
2023-05-19T09:44:31.453Z,20.53
2023-05-19T09:47:18.060Z,20.37
2023-05-19T09:50:07.006Z,20.53
2023-05-19T09:52:54.167Z,20.44
2023-05-19T09:55:41.911Z,20.99
2023-05-19T09:58:34.805Z,20.74
2023-05-19T10:01:22.413Z,21.17
2023-05-19T10:04:09.670Z,21.90
2023-05-19T10:06:59.830Z,21.70
2023-05-19T10:09:48.306Z,21.83
2023-05-19T10:12:35.235Z,21.51
2023-05-19T10:15:23.503Z,20.97
2023-05-19T10:18:10.816Z,20.99
2023-05-19T10:20:58.212Z,21.02
2023-05-19T10:23:44.956Z,20.92
2023-05-19T10:26:32.737Z,20.86
2023-05-19T10:29:24.255Z,20.69
2023-05-19T10:32:15.991Z,20.57
2023-05-19T10:35:21.522Z,20.43
2023-05-19T10:38:16.933Z,20.80
2023-05-19T10:41:12.626Z,21.07
2023-05-19T10:44:08.585Z,21.71
2023-05-19T10:46:56.689Z,21.93
2023-05-19T10:49:46.801Z,22.28
2023-05-19T10:52:38.537Z,22.30
2023-05-19T10:55:46.734Z,22.38
2023-05-19T10:58:41.721Z,22.02
2023-05-19T11:01:33.574Z,21.98
2023-05-19T11:04:39.666Z,21.79
2023-05-19T11:07:28.223Z,21.83
2023-05-19T11:10:14.834Z,21.46
2023-05-19T11:13:01.640Z,21.30
2023-05-19T11:15:50.054Z,21.44
2023-05-19T11:18:38.305Z,21.66
2023-05-19T11:21:25.380Z,21.65
2023-05-19T11:24:37.057Z,21.01
2023-05-19T11:27:28.656Z,21.24
2023-05-19T11:30:17.901Z,21.46
2023-05-19T11:33:04.791Z,21.70
2023-05-19T11:35:52.344Z,21.77
2023-05-19T11:38:39.709Z,21.68
2023-05-19T11:41:28.662Z,21.60
2023-05-19T11:44:15.573Z,20.85
2023-05-19T11:47:02.505Z,21.09
2023-05-19T11:49:50.007Z,21.42
2023-05-19T11:52:36.593Z,21.38
2023-05-19T11:55:23.812Z,21.41
2023-05-19T11:58:11.680Z,21.43
2023-05-19T12:00:58.365Z,21.27
2023-05-19T12:03:45.234Z,21.10
2023-05-19T12:06:32.167Z,21.15
2023-05-19T12:09:19.706Z,21.17
2023-05-19T12:12:06.988Z,21.13
2023-05-19T12:14:55.223Z,21.65
2023-05-19T12:17:42.090Z,21.71
2023-05-19T12:20:31.989Z,21.44
2023-05-19T12:23:18.725Z,21.44
2023-05-19T12:26:06.143Z,21.69
2023-05-19T12:28:52.984Z,22.08
2023-05-19T12:31:40.994Z,22.24
2023-05-19T12:34:27.755Z,22.33
2023-05-19T12:37:14.805Z,22.44
2023-05-19T12:40:01.693Z,21.71
2023-05-19T12:42:48.806Z,21.41
2023-05-19T12:45:36.914Z,21.40
2023-05-19T12:48:25.327Z,21.15
2023-05-19T12:51:12.095Z,20.46
2023-05-19T12:53:59.124Z,20.90
2023-05-19T12:56:51.457Z,21.09
2023-05-19T12:59:39.100Z,21.05
2023-05-19T13:02:25.871Z,21.03
2023-05-19T13:05:14.028Z,21.40
2023-05-19T13:08:03.048Z,21.34
2023-05-19T13:10:50.037Z,21.53
2023-05-19T13:13:36.832Z,21.38
2023-05-19T13:16:23.925Z,21.52
2023-05-19T13:19:23.938Z,21.62
2023-05-19T13:22:12.924Z,21.69
2023-05-19T13:24:59.964Z,21.85
2023-05-19T13:27:47.218Z,21.78
2023-05-19T13:30:34.670Z,21.89
2023-05-19T13:33:22.046Z,21.92
2023-05-19T13:36:09.164Z,21.81
2023-05-19T13:38:57.031Z,21.63
2023-05-19T13:41:43.707Z,21.45
2023-05-19T13:44:30.557Z,21.17
2023-05-19T13:47:17.571Z,21.02
2023-05-19T13:50:04.737Z,20.87
2023-05-19T13:52:52.130Z,20.84
2023-05-19T13:55:40.179Z,20.84
2023-05-19T13:58:26.814Z,20.92
2023-05-19T14:01:13.594Z,21.05
2023-05-19T14:04:01.095Z,21.09
2023-05-19T14:06:48.290Z,21.04
2023-05-19T14:09:35.454Z,20.98
2023-05-19T14:12:30.642Z,20.98
2023-05-19T14:15:23.856Z,20.73
2023-05-19T14:18:11.304Z,20.74
2023-05-19T14:20:58.123Z,20.77
2023-05-19T14:23:44.969Z,21.07
2023-05-19T14:26:31.433Z,20.91
2023-05-19T14:29:19.605Z,21.10
2023-05-19T14:32:07.598Z,20.94
2023-05-19T14:34:54.240Z,20.68
2023-05-19T14:37:41.025Z,20.45
2023-05-19T14:40:28.042Z,20.34
2023-05-19T14:43:14.870Z,20.68
2023-05-19T14:46:02.681Z,20.77
2023-05-19T14:48:49.416Z,20.76
2023-05-19T14:51:36.293Z,20.72
2023-05-19T14:54:23.107Z,20.74
2023-05-19T14:57:10.005Z,20.98
2023-05-19T14:59:57.001Z,21.08
2023-05-19T15:02:45.156Z,21.06
2023-05-19T15:05:31.905Z,21.05
2023-05-19T15:08:19.008Z,21.19
2023-05-19T15:11:05.770Z,21.12
2023-05-19T15:13:52.600Z,21.06
2023-05-19T15:16:39.323Z,21.16
2023-05-19T15:19:27.599Z,21.25
2023-05-19T15:22:15.580Z,21.12
2023-05-19T15:25:02.853Z,20.76
2023-05-19T15:27:51.777Z,20.48
2023-05-19T15:30:38.651Z,20.23
2023-05-19T15:33:25.386Z,20.13
2023-05-19T15:36:16.703Z,20.25
2023-05-19T15:39:07.270Z,20.49
2023-05-19T15:41:55.628Z,20.58
2023-05-19T15:44:50.175Z,20.85
2023-05-19T15:47:38.169Z,20.85
2023-05-19T15:50:26.472Z,20.69
2023-05-19T15:53:14.455Z,20.65
2023-05-19T15:56:03.248Z,20.79
2023-05-19T15:58:51.315Z,20.61
2023-05-19T16:01:38.124Z,20.78
2023-05-19T16:04:24.666Z,20.82
2023-05-19T16:07:11.508Z,20.97
2023-05-19T16:09:59.677Z,20.72
2023-05-19T16:12:46.448Z,20.57
2023-05-19T16:15:33.314Z,20.58
2023-05-19T16:18:20.101Z,20.30
2023-05-19T16:21:07.124Z,20.24
2023-05-19T16:23:53.669Z,20.05
2023-05-19T16:26:41.836Z,19.96
2023-05-19T16:29:28.594Z,20.10
2023-05-19T16:32:15.475Z,20.20
2023-05-19T16:35:02.384Z,20.13
2023-05-19T16:37:49.221Z,20.01
2023-05-19T16:40:36.079Z,20.15
2023-05-19T16:43:24.410Z,20.01
2023-05-19T16:46:12.383Z,20.00
2023-05-19T16:49:13.053Z,19.90
2023-05-19T16:52:07.051Z,19.89
2023-05-19T16:54:59.227Z,19.72
2023-05-19T16:57:52.520Z,19.77
2023-05-19T17:00:45.404Z,19.74
2023-05-19T17:03:48.630Z,19.63
2023-05-19T17:06:43.486Z,19.30
2023-05-19T17:09:33.166Z,19.23
2023-05-19T17:12:28.849Z,19.12
2023-05-19T17:15:30.137Z,19.05
2023-05-19T17:18:27.653Z,18.86
2023-05-19T17:21:27.122Z,18.71
2023-05-19T17:24:19.181Z,18.59
2023-05-19T17:27:20.350Z,18.59
2023-05-19T17:30:12.785Z,18.47
2023-05-19T17:33:04.919Z,18.45
2023-05-19T17:35:56.479Z,18.35
2023-05-19T17:38:48.745Z,18.22
2023-05-19T17:41:42.319Z,17.74
2023-05-19T17:44:31.640Z,17.96
2023-05-19T17:47:29.329Z,17.86
2023-05-19T17:50:22.032Z,17.82
2023-05-19T17:53:23.076Z,17.85
2023-05-19T17:56:19.439Z,17.76
2023-05-19T17:59:12.459Z,17.72
2023-05-19T18:02:19.986Z,17.75
2023-05-19T18:05:23.535Z,17.62
2023-05-19T18:08:19.051Z,17.56
2023-05-19T18:11:18.190Z,17.49
2023-05-19T18:14:12.021Z,17.36
2023-05-19T18:17:11.583Z,17.30
2023-05-19T18:20:02.743Z,17.21
2023-05-19T18:23:02.198Z,17.19
2023-05-19T18:29:22.081Z,17.07
2023-05-19T18:32:16.878Z,16.87
2023-05-19T18:35:23.999Z,16.74
2023-05-19T18:38:29.080Z,16.71
2023-05-19T18:41:31.633Z,16.49
2023-05-19T18:44:38.157Z,16.43
2023-05-19T18:47:31.351Z,16.34
2023-05-19T18:50:28.829Z,16.08
2023-05-19T18:53:31.364Z,16.02
2023-05-19T18:56:35.366Z,15.99
2023-05-19T18:59:34.564Z,15.85
2023-05-19T19:02:33.024Z,15.68
2023-05-19T19:05:47.331Z,15.47
2023-05-19T19:08:42.462Z,15.39
2023-05-19T19:11:43.720Z,15.42
2023-05-19T19:14:54.905Z,15.39
2023-05-19T19:18:04.137Z,15.22
2023-05-19T19:21:09.648Z,15.17
2023-05-19T19:24:12.198Z,14.99
2023-05-19T19:27:18.794Z,14.85
2023-05-19T19:30:14.634Z,14.89
2023-05-19T19:33:17.325Z,14.82
2023-05-19T19:36:13.732Z,14.89
2023-05-19T19:39:06.645Z,14.85
2023-05-19T19:42:00.664Z,14.77
2023-05-19T19:45:05.744Z,14.87
2023-05-19T19:47:58.258Z,14.63
2023-05-19T19:50:53.646Z,14.43
2023-05-19T19:53:43.387Z,14.25
2023-05-19T19:56:33.033Z,14.22
2023-05-19T19:59:20.984Z,14.15
2023-05-19T20:02:08.192Z,14.09
2023-05-19T20:04:56.194Z,14.07
2023-05-19T20:07:42.787Z,14.03
2023-05-19T20:10:29.549Z,13.93
2023-05-19T20:13:17.032Z,13.90
2023-05-19T20:16:03.668Z,13.92
2023-05-19T20:18:50.650Z,13.82
2023-05-19T20:21:38.441Z,13.64
2023-05-19T20:24:25.523Z,13.62
2023-05-19T20:27:12.451Z,13.58
2023-05-19T20:29:58.899Z,13.73
2023-05-19T20:32:46.676Z,13.69
2023-05-19T20:35:33.738Z,13.63
2023-05-19T20:38:22.074Z,13.61
2023-05-19T20:41:08.972Z,13.84
2023-05-19T20:43:56.367Z,13.85
2023-05-19T20:46:42.837Z,13.75
2023-05-19T20:49:29.568Z,13.66
2023-05-19T20:52:17.027Z,13.44
2023-05-19T20:55:05.324Z,13.36
2023-05-19T20:57:52.071Z,13.41
2023-05-19T21:00:39.017Z,13.59
2023-05-19T21:03:27.373Z,13.52
2023-05-19T21:06:14.033Z,13.32
2023-05-19T21:09:03.803Z,13.34
2023-05-19T21:11:53.277Z,13.26
2023-05-19T21:14:40.062Z,13.20
2023-05-19T21:17:26.946Z,13.14
2023-05-19T21:20:13.972Z,13.21
2023-05-19T21:23:00.747Z,12.99
2023-05-19T21:25:47.581Z,12.86
2023-05-19T21:28:35.950Z,12.89
2023-05-19T21:31:22.858Z,12.85
2023-05-19T21:34:09.500Z,12.74
2023-05-19T21:36:56.745Z,12.62
2023-05-19T21:39:43.356Z,12.47
2023-05-19T21:42:30.140Z,12.43
2023-05-19T21:45:18.550Z,12.46
2023-05-19T21:48:06.124Z,12.41
2023-05-19T21:50:54.459Z,12.54
2023-05-19T21:53:41.090Z,12.38
2023-05-19T21:56:27.726Z,12.39
2023-05-19T21:59:14.569Z,12.38
2023-05-19T22:02:02.818Z,12.27
2023-05-19T22:04:49.413Z,12.30
2023-05-19T22:07:36.236Z,12.13
2023-05-19T22:10:23.329Z,12.01
2023-05-19T22:13:09.751Z,11.99
2023-05-19T22:15:57.452Z,12.07
2023-05-19T22:18:45.938Z,12.14
2023-05-19T22:21:32.619Z,12.07
2023-05-19T22:24:19.670Z,12.01
2023-05-19T22:27:08.675Z,11.96
2023-05-19T22:29:55.608Z,12.01
2023-05-19T22:32:42.338Z,12.06
2023-05-19T22:35:30.552Z,12.01
2023-05-19T22:38:17.609Z,11.97
2023-05-19T22:41:04.476Z,12.01
2023-05-19T22:43:51.389Z,11.88
2023-05-19T22:46:38.379Z,11.64
2023-05-19T22:49:25.835Z,11.85
2023-05-19T22:52:14.411Z,11.86
2023-05-19T22:55:00.921Z,11.89
2023-05-19T22:57:47.841Z,11.74
2023-05-19T23:00:34.586Z,11.71
2023-05-19T23:03:21.412Z,11.68
2023-05-19T23:06:08.236Z,11.64
2023-05-19T23:09:03.685Z,11.67
2023-05-19T23:11:50.341Z,11.63
2023-05-19T23:14:37.041Z,11.60
2023-05-19T23:17:23.916Z,11.49
2023-05-19T23:20:11.764Z,11.57
2023-05-19T23:22:58.186Z,11.48
2023-05-19T23:25:46.652Z,11.64
2023-05-19T23:28:33.276Z,11.72
2023-05-19T23:31:20.355Z,11.56
2023-05-19T23:34:07.040Z,11.42
2023-05-19T23:36:53.829Z,11.39
2023-05-19T23:39:40.578Z,11.37
2023-05-19T23:42:28.566Z,11.35
2023-05-19T23:45:15.378Z,11.33
2023-05-19T23:48:02.419Z,11.37
2023-05-19T23:50:49.118Z,11.51
2023-05-19T23:53:36.120Z,11.29
2023-05-19T23:56:22.991Z,11.42
2023-05-19T23:59:11.322Z,11.45
